createdAt,value
2018-01-27T00:01:24.361Z,6.42
2018-01-27T00:03:51.844Z,6.26
2018-01-27T00:06:19.289Z,6.51
2018-01-27T00:08:46.989Z,6.52
2018-01-27T00:11:14.438Z,6.63
2018-01-27T00:13:54.769Z,6.47
2018-01-27T00:16:22.213Z,6.21
2018-01-27T00:18:49.659Z,5.90
2018-01-27T00:21:17.123Z,5.78
2018-01-27T00:23:44.573Z,5.67
2018-01-27T00:26:12.182Z,5.68
2018-01-27T00:28:39.633Z,5.79
2018-01-27T00:31:07.079Z,5.89
2018-01-27T00:33:34.551Z,6.13
2018-01-27T00:36:01.993Z,6.06
2018-01-27T00:38:29.684Z,6.14
2018-01-27T00:40:57.217Z,5.82
2018-01-27T00:43:24.845Z,5.72
2018-01-27T00:45:52.308Z,5.72
2018-01-27T00:48:19.773Z,5.48
2018-01-27T00:50:47.377Z,5.29
2018-01-27T00:53:14.829Z,5.23
2018-01-27T00:55:42.285Z,5.01
2018-01-27T00:58:09.783Z,4.84
2018-01-27T01:00:37.241Z,4.67
2018-01-27T01:03:04.951Z,4.74
2018-01-27T01:05:32.396Z,4.63
2018-01-27T01:07:59.848Z,4.64
2018-01-27T01:10:27.319Z,4.43
2018-01-27T01:12:54.770Z,4.78
2018-01-27T01:15:22.293Z,4.91
2018-01-27T01:17:49.757Z,4.86
2018-01-27T01:20:17.249Z,4.89
2018-01-27T01:22:45.022Z,5.03
2018-01-27T01:25:12.465Z,5.04
2018-01-27T01:27:39.932Z,4.75
2018-01-27T01:30:07.382Z,4.64
2018-01-27T01:32:34.829Z,4.60
2018-01-27T01:35:02.333Z,4.43
2018-01-27T01:37:29.780Z,4.40
2018-01-27T01:39:57.284Z,4.54
2018-01-27T01:42:30.200Z,4.70
2018-01-27T01:44:57.668Z,4.41
2018-01-27T01:47:25.978Z,4.30
2018-01-27T01:49:53.453Z,4.20
2018-01-27T01:52:20.917Z,4.02
2018-01-27T01:54:48.361Z,4.03
2018-01-27T01:57:15.957Z,3.96
2018-01-27T01:59:43.397Z,3.80
2018-01-27T02:02:10.836Z,3.60
2018-01-27T02:04:38.316Z,3.70
2018-01-27T02:07:05.771Z,3.83
2018-01-27T02:09:33.452Z,3.71
2018-01-27T02:12:00.901Z,3.66
2018-01-27T02:14:28.344Z,3.59
2018-01-27T02:16:55.844Z,3.43
2018-01-27T02:19:23.298Z,3.27
2018-01-27T02:21:50.932Z,3.31
2018-01-27T02:24:18.377Z,3.14
2018-01-27T02:26:45.817Z,3.17
2018-01-27T02:29:13.293Z,3.14
2018-01-27T02:31:40.763Z,3.68
2018-01-27T02:34:08.261Z,3.68
2018-01-27T02:36:35.700Z,3.75
2018-01-27T02:39:03.193Z,3.66
2018-01-27T02:41:30.668Z,3.42
2018-01-27T02:43:58.112Z,3.45
2018-01-27T02:46:25.580Z,3.41
2018-01-27T02:48:53.041Z,3.52
2018-01-27T02:51:20.509Z,3.69
2018-01-27T02:53:47.964Z,3.47
2018-01-27T02:56:15.421Z,3.54
2018-01-27T02:58:42.888Z,3.60
2018-01-27T03:01:10.340Z,3.84
2018-01-27T03:03:37.784Z,3.90
2018-01-27T03:06:05.264Z,4.03
2018-01-27T03:08:32.708Z,3.65
2018-01-27T03:11:00.393Z,3.50
2018-01-27T03:13:27.845Z,3.33
2018-01-27T03:15:55.300Z,3.44
2018-01-27T03:18:22.769Z,3.47
2018-01-27T03:20:50.218Z,3.38
2018-01-27T03:23:17.852Z,3.34
2018-01-27T03:25:45.294Z,3.14
2018-01-27T03:28:12.760Z,3.10
2018-01-27T03:30:40.253Z,3.36
2018-01-27T03:33:07.717Z,3.49
2018-01-27T03:35:35.453Z,3.55
2018-01-27T03:38:02.902Z,3.62
2018-01-27T03:40:30.344Z,3.64
2018-01-27T03:42:58.544Z,3.48
2018-01-27T03:45:25.989Z,3.41
2018-01-27T03:47:53.650Z,3.13
2018-01-27T03:50:21.092Z,3.13
2018-01-27T03:52:48.541Z,3.17
2018-01-27T03:55:16.225Z,3.35
2018-01-27T03:57:43.666Z,3.20
2018-01-27T04:00:11.344Z,3.03
2018-01-27T04:02:38.798Z,3.02
2018-01-27T04:05:06.240Z,2.86
2018-01-27T04:07:33.713Z,2.74
2018-01-27T04:10:01.169Z,2.87
2018-01-27T04:12:29.037Z,2.92
2018-01-27T04:14:56.476Z,2.93
2018-01-27T04:17:23.920Z,2.57
2018-01-27T04:19:51.390Z,2.47
2018-01-27T04:22:18.833Z,2.51
2018-01-27T04:24:46.317Z,2.44
2018-01-27T04:27:13.768Z,2.31
2018-01-27T04:29:41.221Z,2.32
2018-01-27T04:32:08.799Z,2.32
2018-01-27T04:34:36.253Z,2.49
2018-01-27T04:37:04.009Z,2.93
2018-01-27T04:39:31.465Z,3.13
2018-01-27T04:41:58.933Z,3.06
2018-01-27T04:44:26.404Z,3.04
2018-01-27T04:46:53.852Z,3.44
2018-01-27T04:49:21.712Z,3.39
2018-01-27T04:51:49.176Z,3.26
2018-01-27T04:54:16.632Z,3.05
2018-01-27T04:56:46.267Z,3.11
2018-01-27T04:59:13.737Z,3.29
2018-01-27T05:01:41.557Z,3.33
2018-01-27T05:04:09.024Z,3.11
2018-01-27T05:06:36.468Z,3.00
2018-01-27T05:09:04.568Z,3.07
2018-01-27T05:11:32.097Z,3.42
2018-01-27T05:13:59.717Z,3.46
2018-01-27T05:16:27.372Z,3.26
2018-01-27T05:18:54.815Z,3.59
2018-01-27T05:21:22.956Z,3.38
2018-01-27T05:23:50.396Z,3.18
2018-01-27T05:26:18.053Z,3.03
2018-01-27T05:28:45.667Z,3.23
2018-01-27T05:31:13.101Z,3.51
2018-01-27T05:33:40.778Z,3.90
2018-01-27T05:36:08.220Z,3.74
2018-01-27T05:38:35.929Z,3.41
2018-01-27T05:41:03.384Z,3.33
2018-01-27T05:43:30.828Z,3.45
2018-01-27T05:45:58.683Z,3.67
2018-01-27T05:48:26.143Z,3.30
2018-01-27T05:50:53.747Z,3.30
2018-01-27T05:53:21.195Z,3.42
2018-01-27T05:55:48.717Z,3.38
2018-01-27T05:58:16.180Z,3.42
2018-01-27T06:00:43.628Z,3.37
2018-01-27T06:03:11.437Z,3.30
2018-01-27T06:05:38.898Z,3.33
2018-01-27T06:08:06.353Z,3.28
2018-01-27T06:10:33.816Z,3.55
2018-01-27T06:13:01.268Z,3.48
2018-01-27T06:15:28.737Z,3.52
2018-01-27T06:17:56.177Z,3.59
2018-01-27T06:20:23.622Z,3.47
2018-01-27T06:22:51.093Z,3.44
2018-01-27T06:25:18.537Z,3.49
2018-01-27T06:27:46.201Z,3.59
2018-01-27T06:30:13.645Z,3.53
2018-01-27T06:32:41.080Z,3.50
2018-01-27T06:35:08.540Z,3.37
2018-01-27T06:37:36.017Z,3.53
2018-01-27T06:40:03.489Z,3.75
2018-01-27T06:42:30.956Z,3.64
2018-01-27T06:44:58.399Z,3.53
2018-01-27T06:47:25.869Z,3.38
2018-01-27T06:49:53.314Z,3.45
2018-01-27T06:52:20.980Z,3.48
2018-01-27T06:54:48.417Z,3.55
2018-01-27T06:57:15.886Z,3.56
2018-01-27T06:59:43.357Z,3.49
2018-01-27T07:02:11.048Z,3.50
2018-01-27T07:04:38.664Z,3.46
2018-01-27T07:07:06.104Z,3.50
2018-01-27T07:09:33.712Z,3.52
2018-01-27T07:12:01.186Z,3.49
2018-01-27T07:14:28.636Z,3.42
2018-01-27T07:16:56.120Z,3.46
2018-01-27T07:19:23.568Z,3.27
2018-01-27T07:21:51.028Z,3.25
2018-01-27T07:24:18.613Z,3.21
2018-01-27T07:26:46.065Z,3.18
2018-01-27T07:29:13.862Z,3.17
2018-01-27T07:31:41.332Z,3.12
2018-01-27T07:34:08.789Z,3.16
2018-01-27T07:36:36.254Z,3.30
2018-01-27T07:39:03.708Z,3.38
2018-01-27T07:41:31.477Z,3.51
2018-01-27T07:43:58.945Z,3.51
2018-01-27T07:46:26.393Z,3.64
2018-01-27T07:48:53.857Z,3.77
2018-01-27T07:51:21.324Z,3.73
2018-01-27T07:53:48.905Z,4.04
2018-01-27T07:56:16.353Z,3.98
2018-01-27T07:58:43.796Z,4.40
2018-01-27T08:01:11.256Z,4.14
2018-01-27T08:03:39.678Z,3.90
2018-01-27T08:06:07.437Z,3.88
2018-01-27T08:08:34.890Z,3.74
2018-01-27T08:11:02.332Z,3.68
2018-01-27T08:13:29.833Z,3.68
2018-01-27T08:15:57.299Z,3.91
2018-01-27T08:18:24.885Z,3.81
2018-01-27T08:20:52.341Z,3.60
2018-01-27T08:23:19.792Z,3.53
2018-01-27T08:25:47.328Z,3.90
2018-01-27T08:28:14.773Z,3.79
2018-01-27T08:30:42.408Z,3.69
2018-01-27T08:33:10.057Z,3.70
2018-01-27T08:35:37.509Z,3.94
2018-01-27T08:38:07.652Z,4.12
2018-01-27T08:40:35.104Z,3.98
2018-01-27T08:43:02.763Z,4.02
2018-01-27T08:45:30.220Z,4.45
2018-01-27T08:47:57.731Z,4.26
2018-01-27T08:50:25.208Z,4.26
2018-01-27T08:52:52.653Z,4.33
2018-01-27T08:55:20.202Z,4.13
2018-01-27T08:57:47.648Z,4.46
2018-01-27T09:00:15.109Z,4.43
2018-01-27T09:02:42.929Z,4.79
2018-01-27T09:05:10.372Z,4.98
2018-01-27T09:07:37.855Z,4.71
2018-01-27T09:10:05.305Z,4.62
2018-01-27T09:12:32.753Z,4.51
2018-01-27T09:15:00.365Z,4.58
2018-01-27T09:17:27.828Z,4.71
2018-01-27T09:19:55.456Z,4.81
2018-01-27T09:22:23.028Z,4.64
2018-01-27T09:24:50.545Z,4.67
2018-01-27T09:27:18.272Z,4.71
2018-01-27T09:29:45.717Z,4.46
2018-01-27T09:32:13.452Z,4.50
2018-01-27T09:34:40.900Z,4.70
2018-01-27T09:37:08.353Z,4.82
2018-01-27T09:39:36.241Z,4.76
2018-01-27T09:42:03.706Z,4.68
2018-01-27T09:44:31.477Z,4.86
2018-01-27T09:46:58.922Z,5.08
2018-01-27T09:49:26.404Z,5.15
2018-01-27T09:51:54.568Z,4.76
2018-01-27T09:54:22.008Z,5.05
2018-01-27T09:56:49.637Z,5.21
2018-01-27T09:59:17.094Z,4.88
2018-01-27T10:01:44.546Z,4.98
2018-01-27T10:04:12.050Z,4.79
2018-01-27T10:06:39.532Z,4.90
2018-01-27T10:09:07.117Z,5.05
2018-01-27T10:11:34.632Z,5.12
2018-01-27T10:14:02.081Z,5.40
2018-01-27T10:16:29.569Z,5.64
2018-01-27T10:18:57.013Z,5.22
2018-01-27T10:21:24.818Z,5.55
2018-01-27T10:23:52.280Z,5.35
2018-01-27T10:26:19.934Z,5.75
2018-01-27T10:28:47.697Z,5.57
2018-01-27T10:31:15.137Z,5.27
2018-01-27T10:33:42.768Z,5.76
2018-01-27T10:36:10.228Z,5.33
2018-01-27T10:38:37.756Z,5.73
2018-01-27T10:41:05.249Z,5.53
2018-01-27T10:43:32.701Z,5.35
2018-01-27T10:46:00.409Z,5.38
2018-01-27T10:48:27.852Z,5.49
2018-01-27T10:50:55.299Z,5.57
2018-01-27T10:53:22.772Z,5.51
2018-01-27T10:55:50.254Z,5.76
2018-01-27T10:58:17.990Z,5.51
2018-01-27T11:00:48.245Z,5.44
2018-01-27T11:03:15.688Z,5.42
2018-01-27T11:05:43.233Z,5.23
2018-01-27T11:08:10.681Z,5.21
2018-01-27T11:10:38.357Z,4.97
2018-01-27T11:13:05.805Z,4.85
2018-01-27T11:15:33.275Z,5.15
2018-01-27T11:18:00.788Z,5.25
2018-01-27T11:20:28.232Z,5.54
2018-01-27T11:22:55.935Z,5.51
2018-01-27T11:25:23.377Z,5.56
2018-01-27T11:27:51.130Z,5.37
2018-01-27T11:30:20.735Z,5.40
2018-01-27T11:32:48.204Z,5.79
2018-01-27T11:35:15.756Z,5.68
2018-01-27T11:37:43.193Z,5.89
2018-01-27T11:40:10.669Z,5.94
2018-01-27T11:42:38.133Z,5.84
2018-01-27T11:45:05.581Z,5.87
2018-01-27T11:47:33.060Z,5.77
2018-01-27T11:50:00.501Z,5.72
2018-01-27T11:52:27.981Z,6.27
2018-01-27T11:54:55.514Z,6.61
2018-01-27T11:57:22.964Z,5.89
2018-01-27T11:59:50.672Z,6.30
2018-01-27T12:02:18.121Z,6.19
2018-01-27T12:04:45.585Z,5.79
2018-01-27T12:07:13.086Z,5.69
2018-01-27T12:09:40.533Z,5.61
2018-01-27T12:12:08.088Z,5.74
2018-01-27T12:14:35.533Z,5.73
2018-01-27T12:17:02.977Z,5.88
2018-01-27T12:19:30.445Z,5.94
2018-01-27T12:21:57.889Z,6.17
2018-01-27T12:24:25.516Z,5.61
2018-01-27T12:26:52.962Z,5.48
2018-01-27T12:29:20.476Z,5.53
2018-01-27T12:31:47.957Z,5.62
2018-01-27T12:34:15.405Z,5.84
2018-01-27T12:36:42.897Z,5.88
2018-01-27T12:39:10.448Z,5.92
2018-01-27T12:41:37.893Z,5.83
2018-01-27T12:44:05.365Z,5.82
2018-01-27T12:46:32.805Z,6.04
2018-01-27T12:49:00.254Z,5.91
2018-01-27T12:51:27.724Z,5.86
2018-01-27T12:53:55.168Z,5.80
2018-01-27T12:56:22.613Z,5.68
2018-01-27T12:58:50.101Z,5.59
2018-01-27T13:01:17.545Z,5.60
2018-01-27T13:03:44.989Z,5.50
2018-01-27T13:06:12.469Z,5.47
2018-01-27T13:08:39.916Z,5.42
2018-01-27T13:11:07.445Z,5.34
2018-01-27T13:13:34.949Z,5.52
2018-01-27T13:16:02.397Z,5.49
2018-01-27T13:18:29.859Z,6.00
2018-01-27T13:20:57.345Z,6.09
2018-01-27T13:23:24.797Z,5.95
2018-01-27T13:25:52.333Z,5.97
2018-01-27T13:28:20.179Z,5.96
2018-01-27T13:30:47.649Z,6.26
2018-01-27T13:33:15.125Z,6.10
2018-01-27T13:35:42.700Z,6.09
2018-01-27T13:38:10.150Z,5.69
2018-01-27T13:40:37.596Z,5.57
2018-01-27T13:43:05.353Z,5.57
2018-01-27T13:45:32.828Z,5.68
2018-01-27T13:48:00.273Z,5.79
2018-01-27T13:50:27.749Z,5.74
2018-01-27T13:52:55.221Z,5.74
2018-01-27T13:55:22.693Z,5.83
2018-01-27T13:57:50.304Z,5.70
2018-01-27T14:00:17.784Z,5.64
2018-01-27T14:02:45.232Z,5.69
2018-01-27T14:05:12.876Z,5.74
2018-01-27T14:07:40.384Z,5.75
2018-01-27T14:10:07.825Z,5.92
2018-01-27T14:12:35.760Z,5.88
2018-01-27T14:15:03.209Z,5.85
2018-01-27T14:17:30.657Z,5.73
2018-01-27T14:19:58.694Z,5.60
2018-01-27T14:22:26.145Z,5.66
2018-01-27T14:24:53.592Z,5.72
2018-01-27T14:27:21.068Z,5.77
2018-01-27T14:29:48.519Z,5.94
2018-01-27T14:32:16.002Z,6.19
2018-01-27T14:34:43.635Z,6.15
2018-01-27T14:37:11.086Z,6.25
2018-01-27T14:39:38.570Z,6.11
2018-01-27T14:42:06.360Z,5.87
2018-01-27T14:44:33.830Z,5.91
2018-01-27T14:47:01.291Z,6.03
2018-01-27T14:49:28.764Z,6.44
2018-01-27T14:51:56.210Z,6.58
2018-01-27T14:54:23.677Z,6.82
2018-01-27T14:56:51.406Z,6.71
2018-01-27T14:59:18.871Z,6.76
2018-01-27T15:01:46.323Z,6.85
2018-01-27T15:04:13.945Z,7.13
2018-01-27T15:06:41.428Z,7.08
2018-01-27T15:09:08.892Z,6.80
2018-01-27T15:11:36.410Z,6.79
2018-01-27T15:14:03.869Z,6.71
2018-01-27T15:16:31.316Z,6.65
2018-01-27T15:18:58.789Z,6.69
2018-01-27T15:21:26.260Z,6.65
2018-01-27T15:23:54.152Z,6.58
2018-01-27T15:26:21.597Z,6.73
2018-01-27T15:28:49.054Z,6.66
2018-01-27T15:31:16.540Z,6.60
2018-01-27T15:33:44.005Z,6.64
2018-01-27T15:36:11.482Z,6.64
2018-01-27T15:38:38.941Z,6.57
2018-01-27T15:41:06.410Z,6.61
2018-01-27T15:43:33.899Z,6.57
2018-01-27T15:46:01.376Z,6.66
2018-01-27T15:48:29.190Z,6.65
2018-01-27T15:50:56.638Z,6.46
2018-01-27T15:53:24.089Z,6.49
2018-01-27T15:55:52.207Z,6.44
2018-01-27T15:58:19.722Z,6.42
2018-01-27T16:00:47.322Z,6.53
2018-01-27T16:03:14.802Z,6.70
2018-01-27T16:05:42.285Z,6.73
2018-01-27T16:08:09.953Z,6.50
2018-01-27T16:10:37.440Z,6.30
2018-01-27T16:13:04.924Z,6.24
2018-01-27T16:15:32.369Z,6.26
2018-01-27T16:17:59.817Z,6.16
2018-01-27T16:20:27.313Z,6.24
2018-01-27T16:22:54.760Z,6.78
2018-01-27T16:25:22.252Z,6.58
2018-01-27T16:27:49.702Z,6.55
2018-01-27T16:30:17.181Z,6.61
2018-01-27T16:32:44.676Z,6.64
2018-01-27T16:35:12.122Z,6.63
2018-01-27T16:37:39.632Z,6.63
2018-01-27T16:40:07.078Z,6.79
2018-01-27T16:42:34.528Z,6.82
2018-01-27T16:45:02.105Z,6.91
2018-01-27T16:47:29.554Z,6.70
2018-01-27T16:49:57.036Z,6.66
2018-01-27T16:52:24.484Z,6.73
2018-01-27T16:54:51.933Z,6.72
2018-01-27T16:57:19.425Z,6.72
2018-01-27T16:59:46.896Z,6.64
2018-01-27T17:02:14.365Z,6.72
2018-01-27T17:04:41.841Z,6.71
2018-01-27T17:07:09.288Z,6.72
2018-01-27T17:09:36.801Z,6.91
2018-01-27T17:12:04.256Z,6.75
2018-01-27T17:14:31.747Z,6.82
2018-01-27T17:16:59.225Z,7.01
2018-01-27T17:19:26.681Z,6.97
2018-01-27T17:21:54.154Z,6.88
2018-01-27T17:24:22.211Z,6.91
2018-01-27T17:26:49.891Z,6.77
2018-01-27T17:29:17.357Z,6.65
2018-01-27T17:31:44.837Z,6.66
2018-01-27T17:34:12.314Z,6.68
2018-01-27T17:36:40.953Z,6.56
2018-01-27T17:39:09.087Z,6.46
2018-01-27T17:41:36.986Z,6.68
2018-01-27T17:44:04.643Z,6.53
2018-01-27T17:46:32.263Z,6.56
2018-01-27T17:48:59.783Z,6.51
2018-01-27T17:51:27.657Z,6.63
2018-01-27T17:53:55.307Z,6.62
2018-01-27T17:56:23.107Z,6.66
2018-01-27T17:58:50.769Z,6.50
2018-01-27T18:01:18.613Z,6.52
2018-01-27T18:03:46.151Z,6.54
2018-01-27T18:06:13.788Z,6.47
2018-01-27T18:08:41.235Z,6.52
2018-01-27T18:11:08.720Z,6.48
2018-01-27T18:13:36.176Z,6.42
2018-01-27T18:16:03.712Z,6.46
2018-01-27T18:18:31.184Z,6.38
2018-01-27T18:20:58.654Z,6.34
2018-01-27T18:23:26.124Z,6.32
2018-01-27T18:25:53.929Z,6.47
2018-01-27T18:28:21.613Z,6.52
2018-01-27T18:30:49.057Z,6.53
2018-01-27T18:33:16.500Z,6.50
2018-01-27T18:35:43.996Z,6.42
2018-01-27T18:38:11.447Z,6.29
2018-01-27T18:40:39.070Z,6.35
2018-01-27T18:43:07.121Z,6.26
2018-01-27T18:45:34.753Z,6.32
2018-01-27T18:48:02.286Z,6.31
2018-01-27T18:50:29.737Z,6.13
2018-01-27T18:52:57.233Z,6.24
2018-01-27T18:55:24.679Z,6.30
2018-01-27T18:57:52.126Z,6.41
2018-01-27T19:00:19.614Z,6.43
2018-01-27T19:02:47.056Z,6.33
2018-01-27T19:05:14.649Z,6.36
2018-01-27T19:07:42.887Z,6.31
2018-01-27T19:10:10.344Z,6.26
2018-01-27T19:12:37.814Z,6.36
2018-01-27T19:15:05.249Z,6.26
2018-01-27T19:17:32.729Z,6.29
2018-01-27T19:20:00.169Z,6.33
2018-01-27T19:22:27.709Z,6.42
2018-01-27T19:24:55.173Z,6.40
2018-01-27T19:27:22.661Z,6.37
2018-01-27T19:29:50.153Z,6.49
2018-01-27T19:32:17.600Z,6.40
2018-01-27T19:34:45.065Z,6.38
2018-01-27T19:37:12.540Z,6.36
2018-01-27T19:39:39.985Z,6.44
2018-01-27T19:42:07.528Z,6.49
2018-01-27T19:44:34.977Z,6.49
2018-01-27T19:47:02.422Z,6.58
2018-01-27T19:49:29.888Z,6.53
2018-01-27T19:51:57.336Z,6.68
2018-01-27T19:54:25.006Z,6.59
2018-01-27T19:56:52.458Z,6.56
2018-01-27T19:59:19.901Z,6.61
2018-01-27T20:01:47.364Z,6.56
2018-01-27T20:04:14.808Z,6.57
2018-01-27T20:06:42.493Z,6.53
2018-01-27T20:09:09.958Z,6.72
2018-01-27T20:11:37.407Z,6.77
2018-01-27T20:14:04.873Z,6.61
2018-01-27T20:16:32.318Z,6.69
2018-01-27T20:18:59.977Z,6.73
2018-01-27T20:21:27.425Z,6.74
2018-01-27T20:23:54.885Z,6.77
2018-01-27T20:26:22.356Z,6.72
2018-01-27T20:28:49.806Z,6.81
2018-01-27T20:31:17.276Z,6.85
2018-01-27T20:33:44.721Z,6.92
2018-01-27T20:36:12.195Z,7.04
2018-01-27T20:38:39.695Z,6.99
2018-01-27T20:41:07.144Z,6.92
2018-01-27T20:43:34.852Z,6.91
2018-01-27T20:46:02.312Z,6.78
2018-01-27T20:48:29.764Z,6.83
2018-01-27T20:50:57.229Z,6.86
2018-01-27T20:53:24.679Z,6.89
2018-01-27T20:55:52.197Z,6.92
2018-01-27T20:58:19.642Z,6.97
2018-01-27T21:00:47.095Z,6.97
2018-01-27T21:03:14.569Z,6.98
2018-01-27T21:05:42.025Z,6.91
2018-01-27T21:08:09.616Z,7.03
2018-01-27T21:10:38.968Z,6.96
2018-01-27T21:13:06.480Z,7.02
2018-01-27T21:15:33.945Z,7.05
2018-01-27T21:18:01.393Z,7.13
2018-01-27T21:20:28.872Z,6.98
2018-01-27T21:22:56.984Z,7.03
2018-01-27T21:25:24.460Z,6.97
2018-01-27T21:27:51.964Z,7.13
2018-01-27T21:30:19.413Z,7.06
2018-01-27T21:32:46.905Z,7.02
2018-01-27T21:35:14.403Z,6.94
2018-01-27T21:37:41.849Z,6.89
2018-01-27T21:40:09.317Z,6.97
2018-01-27T21:42:36.768Z,7.16
2018-01-27T21:45:04.453Z,7.21
2018-01-27T21:47:31.914Z,7.28
2018-01-27T21:49:59.364Z,7.15
2018-01-27T21:52:26.838Z,7.10
2018-01-27T21:54:54.285Z,7.32
2018-01-27T21:57:21.777Z,7.08
2018-01-27T21:59:49.236Z,7.22
2018-01-27T22:02:16.698Z,7.03
2018-01-27T22:04:44.181Z,7.19
2018-01-27T22:07:11.629Z,7.18
2018-01-27T22:09:39.142Z,7.05
2018-01-27T22:12:06.677Z,6.98
2018-01-27T22:14:34.129Z,6.84
2018-01-27T22:17:01.593Z,7.13
2018-01-27T22:19:29.044Z,6.71
2018-01-27T22:21:56.532Z,6.64
2018-01-27T22:24:23.976Z,6.76
2018-01-27T22:26:51.421Z,6.86
2018-01-27T22:29:18.896Z,6.71
2018-01-27T22:31:46.367Z,6.80
2018-01-27T22:34:13.940Z,6.67
2018-01-27T22:36:41.388Z,6.65
2018-01-27T22:39:08.840Z,6.73
2018-01-27T22:41:36.308Z,6.86
2018-01-27T22:44:03.757Z,6.72
2018-01-27T22:46:31.565Z,6.76
2018-01-27T22:48:59.008Z,6.66
2018-01-27T22:51:26.452Z,6.82
2018-01-27T22:53:53.942Z,6.66
2018-01-27T22:56:21.389Z,6.82
2018-01-27T22:58:49.357Z,6.72
2018-01-27T23:01:20.692Z,6.78
2018-01-27T23:03:48.137Z,6.85
2018-01-27T23:06:15.602Z,6.96
2018-01-27T23:08:43.073Z,6.78
2018-01-27T23:11:12.679Z,6.65
2018-01-27T23:13:40.193Z,6.73
2018-01-27T23:16:07.638Z,6.73
2018-01-27T23:18:35.106Z,6.78
2018-01-27T23:21:02.540Z,6.74
2018-01-27T23:23:30.016Z,6.53
2018-01-27T23:25:57.453Z,6.73
2018-01-27T23:28:24.893Z,6.54
2018-01-27T23:30:52.366Z,6.47
2018-01-27T23:33:19.825Z,6.58
2018-01-27T23:35:47.308Z,6.61
2018-01-27T23:38:14.780Z,6.65
2018-01-27T23:40:42.220Z,6.52
2018-01-27T23:43:09.684Z,6.46
2018-01-27T23:45:37.140Z,6.58
2018-01-27T23:48:04.617Z,6.42
2018-01-27T23:50:32.291Z,6.43
2018-01-27T23:52:59.777Z,6.42
2018-01-27T23:55:27.260Z,6.62
2018-01-27T23:57:54.697Z,6.60
